Pagina principale
METAR-TAF:

METAR-TAF

Aeroporti :

Aeroporto militare Lanvéoc-Poulmic

Lanvéoc, Francia

latitudine: 48-17N, longitudine: 004-26W, altezza: 87 m

Osservazione

Il bollettino è stato emesso 32 minuti fa, alle 17:00 UTC
Vento 9 kt da ovest/nord-ovest
Temperature 24°C
Umidità 47%
Pressione 1015 hPa
Visibilità 10 km o più
nessuna nube inferiore a 1500 m e nessun cumulonembo

METAR: LFRL 311700Z AUTO 30009KT CAVOK 24/12 Q1015

Ora: 19:32 (17:32 UTC)


TAF: mancante

Osservazioni e previsioni meteorologiche di più di 4000 aeroporti (messaggi METAR e TAF).

Le stazioni disponibili sono rappresentate dai dischi gialli e rossi sulla carta.

Puntare il mouse per vedere il nome della stazione.

Clicca sopra per visualizzare le osservazioni e previsioni meteorologiche.

Per cambiare la mappa : fare clic sui pulsanti verdi con una croce nera per ingrandire, il pulsante verde con un trattino per diminuire, o sulla freccia verde per le mappe adiacenti.


METAR-TAF: